sensor_id;sensor_type;location;lat;lon;timestamp;P1;durP1;ratioP1;P2;durP2;ratioP2
71464;SDS011;59274;49.874;9.154;2023-04-16T00:00:00;12.00;;;5.80;;
71464;SDS011;59274;49.874;9.154;2023-04-16T00:02:28;12.77;;;5.32;;
71464;SDS011;59274;49.874;9.154;2023-04-16T00:04:53;11.88;;;5.90;;
71464;SDS011;59274;49.874;9.154;2023-04-16T00:07:19;12.53;;;5.67;;
71464;SDS011;59274;49.874;9.154;2023-04-16T00:09:44;11.43;;;5.53;;
71464;SDS011;59274;49.874;9.154;2023-04-16T00:12:10;12.75;;;5.80;;
71464;SDS011;59274;49.874;9.154;2023-04-16T00:14:36;13.00;;;5.93;;
71464;SDS011;59274;49.874;9.154;2023-04-16T00:17:01;13.00;;;5.82;;
71464;SDS011;59274;49.874;9.154;2023-04-16T00:19:27;13.77;;;5.87;;
71464;SDS011;59274;49.874;9.154;2023-04-16T00:21:52;12.47;;;5.53;;
71464;SDS011;59274;49.874;9.154;2023-04-16T00:24:18;13.35;;;5.50;;
71464;SDS011;59274;49.874;9.154;2023-04-16T00:26:43;13.07;;;5.93;;
71464;SDS011;59274;49.874;9.154;2023-04-16T00:29:10;11.55;;;5.65;;
71464;SDS011;59274;49.874;9.154;2023-04-16T00:31:36;12.87;;;6.57;;
71464;SDS011;59274;49.874;9.154;2023-04-16T00:34:02;10.70;;;5.68;;
71464;SDS011;59274;49.874;9.154;2023-04-16T00:36:28;12.88;;;6.03;;
71464;SDS011;59274;49.874;9.154;2023-04-16T00:38:54;11.93;;;5.20;;
71464;SDS011;59274;49.874;9.154;2023-04-16T00:41:20;13.30;;;6.13;;
71464;SDS011;59274;49.874;9.154;2023-04-16T00:43:47;11.68;;;6.28;;
71464;SDS011;59274;49.874;9.154;2023-04-16T00:46:13;12.87;;;6.00;;
71464;SDS011;59274;49.874;9.154;2023-04-16T00:48:40;14.60;;;7.03;;
71464;SDS011;59274;49.874;9.154;2023-04-16T00:51:09;16.80;;;6.95;;
71464;SDS011;59274;49.874;9.154;2023-04-16T00:53:35;14.98;;;6.35;;
71464;SDS011;59274;49.874;9.154;2023-04-16T00:56:02;16.17;;;6.80;;
71464;SDS011;59274;49.874;9.154;2023-04-16T00:58:28;14.18;;;6.35;;
71464;SDS011;59274;49.874;9.154;2023-04-16T01:00:54;14.10;;;6.95;;
71464;SDS011;59274;49.874;9.154;2023-04-16T01:03:24;13.65;;;6.25;;
71464;SDS011;59274;49.874;9.154;2023-04-16T01:06:01;12.95;;;5.97;;
71464;SDS011;59274;49.874;9.154;2023-04-16T01:08:27;14.50;;;6.47;;
71464;SDS011;59274;49.874;9.154;2023-04-16T01:10:52;13.07;;;5.97;;
71464;SDS011;59274;49.874;9.154;2023-04-16T01:13:18;12.83;;;6.07;;
71464;SDS011;59274;49.874;9.154;2023-04-16T01:15:43;12.63;;;6.10;;
71464;SDS011;59274;49.874;9.154;2023-04-16T01:18:15;15.00;;;6.27;;
71464;SDS011;59274;49.874;9.154;2023-04-16T01:20:44;11.32;;;5.70;;
71464;SDS011;59274;49.874;9.154;2023-04-16T01:23:11;14.80;;;6.60;;
71464;SDS011;59274;49.874;9.154;2023-04-16T01:25:36;11.50;;;5.67;;
71464;SDS011;59274;49.874;9.154;2023-04-16T01:28:03;13.63;;;6.35;;
71464;SDS011;59274;49.874;9.154;2023-04-16T01:30:29;13.10;;;6.43;;
71464;SDS011;59274;49.874;9.154;2023-04-16T01:32:54;13.37;;;6.27;;
71464;SDS011;59274;49.874;9.154;2023-04-16T01:35:20;13.70;;;6.20;;
71464;SDS011;59274;49.874;9.154;2023-04-16T01:37:45;13.98;;;6.00;;
71464;SDS011;59274;49.874;9.154;2023-04-16T01:40:11;14.10;;;6.13;;
71464;SDS011;59274;49.874;9.154;2023-04-16T01:42:36;13.93;;;6.33;;
71464;SDS011;59274;49.874;9.154;2023-04-16T01:45:02;14.27;;;6.40;;
71464;SDS011;59274;49.874;9.154;2023-04-16T01:47:28;14.77;;;6.53;;
71464;SDS011;59274;49.874;9.154;2023-04-16T01:49:53;13.97;;;6.83;;
71464;SDS011;59274;49.874;9.154;2023-04-16T01:52:19;13.63;;;6.60;;
71464;SDS011;59274;49.874;9.154;2023-04-16T01:54:45;15.00;;;6.80;;
71464;SDS011;59274;49.874;9.154;2023-04-16T01:57:10;14.73;;;7.27;;
71464;SDS011;59274;49.874;9.154;2023-04-16T01:59:36;12.33;;;6.27;;
71464;SDS011;59274;49.874;9.154;2023-04-16T02:02:11;13.47;;;6.50;;
71464;SDS011;59274;49.874;9.154;2023-04-16T02:04:42;14.57;;;6.80;;
71464;SDS011;59274;49.874;9.154;2023-04-16T02:07:09;16.92;;;6.90;;
71464;SDS011;59274;49.874;9.154;2023-04-16T02:09:35;15.40;;;6.53;;
71464;SDS011;59274;49.874;9.154;2023-04-16T02:12:01;14.77;;;7.13;;
71464;SDS011;59274;49.874;9.154;2023-04-16T02:14:27;14.73;;;6.65;;
71464;SDS011;59274;49.874;9.154;2023-04-16T02:16:53;14.15;;;6.63;;
71464;SDS011;59274;49.874;9.154;2023-04-16T02:19:19;13.73;;;6.60;;
71464;SDS011;59274;49.874;9.154;2023-04-16T02:21:44;14.00;;;7.40;;
71464;SDS011;59274;49.874;9.154;2023-04-16T02:24:10;15.32;;;7.00;;
71464;SDS011;59274;49.874;9.154;2023-04-16T02:26:35;15.80;;;6.73;;
71464;SDS011;59274;49.874;9.154;2023-04-16T02:29:01;16.93;;;7.77;;
71464;SDS011;59274;49.874;9.154;2023-04-16T02:31:26;15.23;;;7.23;;
71464;SDS011;59274;49.874;9.154;2023-04-16T02:33:53;16.67;;;7.60;;
71464;SDS011;59274;49.874;9.154;2023-04-16T02:36:18;16.52;;;7.32;;
71464;SDS011;59274;49.874;9.154;2023-04-16T02:38:44;13.80;;;7.23;;
71464;SDS011;59274;49.874;9.154;2023-04-16T02:41:09;16.90;;;7.63;;
71464;SDS011;59274;49.874;9.154;2023-04-16T02:43:35;16.75;;;7.60;;
71464;SDS011;59274;49.874;9.154;2023-04-16T02:46:00;16.90;;;7.40;;
71464;SDS011;59274;49.874;9.154;2023-04-16T02:48:26;15.33;;;7.67;;
71464;SDS011;59274;49.874;9.154;2023-04-16T02:50:51;16.67;;;8.23;;
71464;SDS011;59274;49.874;9.154;2023-04-16T02:53:16;14.33;;;7.77;;
71464;SDS011;59274;49.874;9.154;2023-04-16T02:55:48;18.20;;;8.50;;
71464;SDS011;59274;49.874;9.154;2023-04-16T02:58:18;15.98;;;7.78;;
71464;SDS011;59274;49.874;9.154;2023-04-16T03:00:44;15.05;;;7.68;;
71464;SDS011;59274;49.874;9.154;2023-04-16T03:03:09;15.80;;;7.57;;
71464;SDS011;59274;49.874;9.154;2023-04-16T03:05:35;16.23;;;8.03;;
71464;SDS011;59274;49.874;9.154;2023-04-16T03:08:00;17.98;;;7.80;;
71464;SDS011;59274;49.874;9.154;2023-04-16T03:10:27;17.20;;;7.90;;
71464;SDS011;59274;49.874;9.154;2023-04-16T03:12:52;16.27;;;7.35;;
71464;SDS011;59274;49.874;9.154;2023-04-16T03:15:18;15.50;;;7.00;;
71464;SDS011;59274;49.874;9.154;2023-04-16T03:17:43;16.07;;;8.03;;
71464;SDS011;59274;49.874;9.154;2023-04-16T03:20:09;15.53;;;7.37;;
71464;SDS011;59274;49.874;9.154;2023-04-16T03:22:34;13.98;;;7.60;;
71464;SDS011;59274;49.874;9.154;2023-04-16T03:25:00;15.37;;;7.47;;
71464;SDS011;59274;49.874;9.154;2023-04-16T03:27:25;14.70;;;7.30;;
71464;SDS011;59274;49.874;9.154;2023-04-16T03:29:50;15.23;;;7.30;;
71464;SDS011;59274;49.874;9.154;2023-04-16T03:32:16;15.70;;;7.50;;
71464;SDS011;59274;49.874;9.154;2023-04-16T03:34:41;14.90;;;6.75;;
71464;SDS011;59274;49.874;9.154;2023-04-16T03:37:07;14.53;;;7.60;;
71464;SDS011;59274;49.874;9.154;2023-04-16T03:39:35;16.10;;;7.78;;
71464;SDS011;59274;49.874;9.154;2023-04-16T03:42:01;14.67;;;7.50;;
71464;SDS011;59274;49.874;9.154;2023-04-16T03:44:27;17.88;;;9.00;;
71464;SDS011;59274;49.874;9.154;2023-04-16T03:46:53;15.02;;;7.63;;
71464;SDS011;59274;49.874;9.154;2023-04-16T03:49:19;15.73;;;7.63;;
71464;SDS011;59274;49.874;9.154;2023-04-16T03:51:44;17.00;;;8.13;;
71464;SDS011;59274;49.874;9.154;2023-04-16T03:54:10;18.33;;;7.90;;
71464;SDS011;59274;49.874;9.154;2023-04-16T03:56:35;15.90;;;7.97;;
71464;SDS011;59274;49.874;9.154;2023-04-16T03:59:01;16.57;;;7.87;;
71464;SDS011;59274;49.874;9.154;2023-04-16T04:01:26;16.77;;;7.65;;
71464;SDS011;59274;49.874;9.154;2023-04-16T04:03:52;16.87;;;7.47;;
71464;SDS011;59274;49.874;9.154;2023-04-16T04:06:17;15.03;;;7.00;;
71464;SDS011;59274;49.874;9.154;2023-04-16T04:08:42;14.80;;;7.87;;
71464;SDS011;59274;49.874;9.154;2023-04-16T04:11:08;16.52;;;7.25;;
71464;SDS011;59274;49.874;9.154;2023-04-16T04:13:33;16.33;;;7.30;;
71464;SDS011;59274;49.874;9.154;2023-04-16T04:15:59;14.97;;;7.60;;
71464;SDS011;59274;49.874;9.154;2023-04-16T04:18:24;14.30;;;7.43;;
71464;SDS011;59274;49.874;9.154;2023-04-16T04:20:50;18.50;;;7.63;;
71464;SDS011;59274;49.874;9.154;2023-04-16T04:23:16;14.82;;;7.35;;
71464;SDS011;59274;49.874;9.154;2023-04-16T04:25:41;15.43;;;7.63;;
71464;SDS011;59274;49.874;9.154;2023-04-16T04:28:06;13.77;;;6.97;;
71464;SDS011;59274;49.874;9.154;2023-04-16T04:30:32;15.45;;;7.30;;
71464;SDS011;59274;49.874;9.154;2023-04-16T04:32:59;16.33;;;7.50;;
71464;SDS011;59274;49.874;9.154;2023-04-16T04:35:25;14.85;;;7.30;;
71464;SDS011;59274;49.874;9.154;2023-04-16T04:37:50;13.73;;;7.43;;
71464;SDS011;59274;49.874;9.154;2023-04-16T04:40:15;15.80;;;7.17;;
71464;SDS011;59274;49.874;9.154;2023-04-16T04:42:41;14.90;;;7.47;;
71464;SDS011;59274;49.874;9.154;2023-04-16T04:45:06;15.70;;;7.20;;
71464;SDS011;59274;49.874;9.154;2023-04-16T04:47:33;15.23;;;6.95;;
71464;SDS011;59274;49.874;9.154;2023-04-16T04:49:58;12.87;;;6.70;;
71464;SDS011;59274;49.874;9.154;2023-04-16T04:52:23;16.65;;;7.00;;
71464;SDS011;59274;49.874;9.154;2023-04-16T04:54:49;14.43;;;6.43;;
71464;SDS011;59274;49.874;9.154;2023-04-16T04:57:14;15.83;;;8.30;;
71464;SDS011;59274;49.874;9.154;2023-04-16T04:59:40;14.88;;;8.13;;
71464;SDS011;59274;49.874;9.154;2023-04-16T05:02:05;17.05;;;7.95;;
71464;SDS011;59274;49.874;9.154;2023-04-16T05:04:31;16.00;;;7.80;;
71464;SDS011;59274;49.874;9.154;2023-04-16T05:06:56;15.10;;;7.43;;
71464;SDS011;59274;49.874;9.154;2023-04-16T05:09:22;17.88;;;7.80;;
71464;SDS011;59274;49.874;9.154;2023-04-16T05:11:47;13.57;;;7.30;;
71464;SDS011;59274;49.874;9.154;2023-04-16T05:14:13;14.80;;;7.80;;
71464;SDS011;59274;49.874;9.154;2023-04-16T05:16:38;13.87;;;7.57;;
71464;SDS011;59274;49.874;9.154;2023-04-16T05:19:03;17.63;;;7.83;;
71464;SDS011;59274;49.874;9.154;2023-04-16T05:21:29;15.07;;;7.57;;
71464;SDS011;59274;49.874;9.154;2023-04-16T05:23:54;16.00;;;7.33;;
71464;SDS011;59274;49.874;9.154;2023-04-16T05:26:20;15.33;;;7.37;;
71464;SDS011;59274;49.874;9.154;2023-04-16T05:28:46;14.77;;;7.32;;
71464;SDS011;59274;49.874;9.154;2023-04-16T05:31:12;15.57;;;7.80;;
71464;SDS011;59274;49.874;9.154;2023-04-16T05:33:37;15.97;;;7.53;;
71464;SDS011;59274;49.874;9.154;2023-04-16T05:36:03;14.73;;;7.32;;
71464;SDS011;59274;49.874;9.154;2023-04-16T05:38:29;15.83;;;7.63;;
71464;SDS011;59274;49.874;9.154;2023-04-16T05:40:54;14.15;;;7.22;;
71464;SDS011;59274;49.874;9.154;2023-04-16T05:43:20;16.07;;;7.13;;
71464;SDS011;59274;49.874;9.154;2023-04-16T05:45:45;14.73;;;7.07;;
71464;SDS011;59274;49.874;9.154;2023-04-16T05:48:11;15.83;;;7.23;;
71464;SDS011;59274;49.874;9.154;2023-04-16T05:50:37;16.50;;;8.00;;
71464;SDS011;59274;49.874;9.154;2023-04-16T05:53:04;16.27;;;7.93;;
71464;SDS011;59274;49.874;9.154;2023-04-16T05:55:30;13.60;;;6.68;;
71464;SDS011;59274;49.874;9.154;2023-04-16T05:57:56;17.37;;;7.70;;
71464;SDS011;59274;49.874;9.154;2023-04-16T06:00:21;14.02;;;7.03;;
71464;SDS011;59274;49.874;9.154;2023-04-16T06:02:47;17.83;;;7.47;;
71464;SDS011;59274;49.874;9.154;2023-04-16T06:05:12;17.70;;;8.40;;
71464;SDS011;59274;49.874;9.154;2023-04-16T06:07:38;15.07;;;8.40;;
71464;SDS011;59274;49.874;9.154;2023-04-16T06:10:03;17.63;;;8.17;;
71464;SDS011;59274;49.874;9.154;2023-04-16T06:12:29;17.88;;;8.73;;
71464;SDS011;59274;49.874;9.154;2023-04-16T06:14:55;15.40;;;7.72;;
71464;SDS011;59274;49.874;9.154;2023-04-16T06:17:20;16.60;;;8.10;;
71464;SDS011;59274;49.874;9.154;2023-04-16T06:19:46;19.30;;;9.05;;
71464;SDS011;59274;49.874;9.154;2023-04-16T06:22:12;17.50;;;8.53;;
71464;SDS011;59274;49.874;9.154;2023-04-16T06:24:37;16.00;;;7.97;;
71464;SDS011;59274;49.874;9.154;2023-04-16T06:27:03;17.75;;;9.52;;
71464;SDS011;59274;49.874;9.154;2023-04-16T06:29:28;15.70;;;8.10;;
71464;SDS011;59274;49.874;9.154;2023-04-16T06:31:54;17.77;;;8.73;;
71464;SDS011;59274;49.874;9.154;2023-04-16T06:34:20;17.98;;;8.35;;
71464;SDS011;59274;49.874;9.154;2023-04-16T06:36:45;22.10;;;10.50;;
71464;SDS011;59274;49.874;9.154;2023-04-16T06:39:10;17.93;;;9.37;;
71464;SDS011;59274;49.874;9.154;2023-04-16T06:41:36;19.83;;;9.67;;
71464;SDS011;59274;49.874;9.154;2023-04-16T06:44:01;20.25;;;10.25;;
71464;SDS011;59274;49.874;9.154;2023-04-16T06:46:27;15.87;;;7.93;;
71464;SDS011;59274;49.874;9.154;2023-04-16T06:48:52;15.60;;;7.73;;
71464;SDS011;59274;49.874;9.154;2023-04-16T06:51:18;17.83;;;9.57;;
71464;SDS011;59274;49.874;9.154;2023-04-16T06:53:43;16.42;;;8.82;;
71464;SDS011;59274;49.874;9.154;2023-04-16T06:56:09;17.10;;;8.88;;
71464;SDS011;59274;49.874;9.154;2023-04-16T06:58:34;19.87;;;10.37;;
71464;SDS011;59274;49.874;9.154;2023-04-16T07:01:00;18.08;;;9.50;;
71464;SDS011;59274;49.874;9.154;2023-04-16T07:03:26;17.93;;;9.47;;
71464;SDS011;59274;49.874;9.154;2023-04-16T07:05:52;20.08;;;10.77;;
71464;SDS011;59274;49.874;9.154;2023-04-16T07:08:17;19.70;;;10.50;;
71464;SDS011;59274;49.874;9.154;2023-04-16T07:10:43;20.47;;;10.60;;
71464;SDS011;59274;49.874;9.154;2023-04-16T07:13:08;18.40;;;9.38;;
71464;SDS011;59274;49.874;9.154;2023-04-16T07:15:34;21.00;;;9.33;;
71464;SDS011;59274;49.874;9.154;2023-04-16T07:18:02;18.52;;;9.77;;
71464;SDS011;59274;49.874;9.154;2023-04-16T07:20:28;20.17;;;9.50;;
71464;SDS011;59274;49.874;9.154;2023-04-16T07:22:54;18.00;;;9.55;;
71464;SDS011;59274;49.874;9.154;2023-04-16T07:25:19;19.20;;;9.17;;
71464;SDS011;59274;49.874;9.154;2023-04-16T07:27:45;17.80;;;9.47;;
71464;SDS011;59274;49.874;9.154;2023-04-16T07:30:10;19.55;;;9.57;;
71464;SDS011;59274;49.874;9.154;2023-04-16T07:32:36;17.30;;;8.43;;
71464;SDS011;59274;49.874;9.154;2023-04-16T07:35:01;19.57;;;9.33;;
71464;SDS011;59274;49.874;9.154;2023-04-16T07:37:27;20.08;;;9.75;;
71464;SDS011;59274;49.874;9.154;2023-04-16T07:39:53;16.85;;;8.77;;
71464;SDS011;59274;49.874;9.154;2023-04-16T07:42:21;17.95;;;9.02;;
71464;SDS011;59274;49.874;9.154;2023-04-16T07:44:47;19.80;;;10.35;;
71464;SDS011;59274;49.874;9.154;2023-04-16T07:47:12;16.33;;;8.30;;
71464;SDS011;59274;49.874;9.154;2023-04-16T07:49:38;18.23;;;9.00;;
71464;SDS011;59274;49.874;9.154;2023-04-16T07:52:03;17.63;;;8.48;;
71464;SDS011;59274;49.874;9.154;2023-04-16T07:54:28;18.52;;;8.43;;
71464;SDS011;59274;49.874;9.154;2023-04-16T07:56:54;15.67;;;8.77;;
71464;SDS011;59274;49.874;9.154;2023-04-16T07:59:19;17.17;;;8.07;;
71464;SDS011;59274;49.874;9.154;2023-04-16T08:01:45;17.83;;;9.30;;
71464;SDS011;59274;49.874;9.154;2023-04-16T08:04:11;18.15;;;7.97;;
71464;SDS011;59274;49.874;9.154;2023-04-16T08:06:36;16.10;;;8.33;;
71464;SDS011;59274;49.874;9.154;2023-04-16T08:09:02;19.27;;;8.52;;
71464;SDS011;59274;49.874;9.154;2023-04-16T08:11:27;15.80;;;7.53;;
71464;SDS011;59274;49.874;9.154;2023-04-16T08:13:53;14.77;;;7.53;;
71464;SDS011;59274;49.874;9.154;2023-04-16T08:16:18;18.10;;;8.98;;
71464;SDS011;59274;49.874;9.154;2023-04-16T08:18:44;18.70;;;8.27;;
71464;SDS011;59274;49.874;9.154;2023-04-16T08:21:09;17.60;;;8.87;;
71464;SDS011;59274;49.874;9.154;2023-04-16T08:23:34;16.13;;;8.17;;
71464;SDS011;59274;49.874;9.154;2023-04-16T08:26:00;16.75;;;8.23;;
71464;SDS011;59274;49.874;9.154;2023-04-16T08:28:26;18.47;;;9.10;;
71464;SDS011;59274;49.874;9.154;2023-04-16T08:30:51;16.50;;;7.83;;
71464;SDS011;59274;49.874;9.154;2023-04-16T08:33:17;22.70;;;9.53;;
71464;SDS011;59274;49.874;9.154;2023-04-16T08:35:42;17.15;;;8.68;;
71464;SDS011;59274;49.874;9.154;2023-04-16T08:38:07;19.30;;;9.50;;
71464;SDS011;59274;49.874;9.154;2023-04-16T08:40:34;22.47;;;9.43;;
71464;SDS011;59274;49.874;9.154;2023-04-16T08:43:04;21.38;;;8.98;;
71464;SDS011;59274;49.874;9.154;2023-04-16T08:45:36;21.15;;;9.02;;
71464;SDS011;59274;49.874;9.154;2023-04-16T08:48:02;17.07;;;8.43;;
71464;SDS011;59274;49.874;9.154;2023-04-16T08:50:29;16.38;;;8.45;;
71464;SDS011;59274;49.874;9.154;2023-04-16T08:52:58;21.85;;;10.63;;
71464;SDS011;59274;49.874;9.154;2023-04-16T08:55:42;20.58;;;10.35;;
71464;SDS011;59274;49.874;9.154;2023-04-16T08:58:13;19.13;;;10.10;;
71464;SDS011;59274;49.874;9.154;2023-04-16T09:00:41;16.27;;;8.27;;
71464;SDS011;59274;49.874;9.154;2023-04-16T09:03:07;16.95;;;8.35;;
71464;SDS011;59274;49.874;9.154;2023-04-16T09:05:34;16.88;;;8.75;;
71464;SDS011;59274;49.874;9.154;2023-04-16T09:08:00;17.23;;;9.05;;
71464;SDS011;59274;49.874;9.154;2023-04-16T09:10:26;15.20;;;8.13;;
71464;SDS011;59274;49.874;9.154;2023-04-16T09:12:54;17.00;;;8.98;;
71464;SDS011;59274;49.874;9.154;2023-04-16T09:15:20;18.27;;;9.10;;
71464;SDS011;59274;49.874;9.154;2023-04-16T09:17:49;16.60;;;8.93;;
71464;SDS011;59274;49.874;9.154;2023-04-16T09:20:14;18.45;;;9.73;;
71464;SDS011;59274;49.874;9.154;2023-04-16T09:22:40;17.67;;;8.77;;
71464;SDS011;59274;49.874;9.154;2023-04-16T09:25:07;17.50;;;9.20;;
71464;SDS011;59274;49.874;9.154;2023-04-16T09:27:33;16.45;;;8.57;;
71464;SDS011;59274;49.874;9.154;2023-04-16T09:30:00;21.73;;;10.65;;
71464;SDS011;59274;49.874;9.154;2023-04-16T09:32:27;19.98;;;10.25;;
71464;SDS011;59274;49.874;9.154;2023-04-16T09:34:54;21.10;;;9.57;;
71464;SDS011;59274;49.874;9.154;2023-04-16T09:37:24;19.83;;;10.20;;
71464;SDS011;59274;49.874;9.154;2023-04-16T09:39:57;19.23;;;9.68;;
71464;SDS011;59274;49.874;9.154;2023-04-16T09:42:23;20.48;;;10.45;;
71464;SDS011;59274;49.874;9.154;2023-04-16T09:44:52;25.60;;;13.53;;
71464;SDS011;59274;49.874;9.154;2023-04-16T09:47:18;19.58;;;10.30;;
71464;SDS011;59274;49.874;9.154;2023-04-16T09:49:44;16.45;;;9.18;;
71464;SDS011;59274;49.874;9.154;2023-04-16T09:52:20;19.38;;;8.80;;
71464;SDS011;59274;49.874;9.154;2023-04-16T09:57:13;15.63;;;8.68;;
71464;SDS011;59274;49.874;9.154;2023-04-16T09:59:42;15.63;;;8.70;;
71464;SDS011;59274;49.874;9.154;2023-04-16T10:02:07;17.40;;;9.10;;
71464;SDS011;59274;49.874;9.154;2023-04-16T10:07:11;17.52;;;9.02;;
71464;SDS011;59274;49.874;9.154;2023-04-16T10:09:38;19.38;;;9.95;;
71464;SDS011;59274;49.874;9.154;2023-04-16T10:12:04;16.77;;;8.97;;
71464;SDS011;59274;49.874;9.154;2023-04-16T10:14:30;20.08;;;10.15;;
71464;SDS011;59274;49.874;9.154;2023-04-16T10:16:56;19.33;;;10.23;;
71464;SDS011;59274;49.874;9.154;2023-04-16T10:19:22;18.17;;;9.77;;
71464;SDS011;59274;49.874;9.154;2023-04-16T10:21:52;18.38;;;9.75;;
71464;SDS011;59274;49.874;9.154;2023-04-16T10:24:18;19.45;;;9.50;;
71464;SDS011;59274;49.874;9.154;2023-04-16T10:26:44;18.17;;;9.33;;
71464;SDS011;59274;49.874;9.154;2023-04-16T10:29:14;18.75;;;9.43;;
71464;SDS011;59274;49.874;9.154;2023-04-16T10:31:39;17.02;;;9.05;;
71464;SDS011;59274;49.874;9.154;2023-04-16T10:34:06;18.00;;;9.10;;
71464;SDS011;59274;49.874;9.154;2023-04-16T10:36:36;17.07;;;9.27;;
71464;SDS011;59274;49.874;9.154;2023-04-16T10:39:02;17.10;;;8.88;;
71464;SDS011;59274;49.874;9.154;2023-04-16T10:41:28;17.88;;;9.38;;
71464;SDS011;59274;49.874;9.154;2023-04-16T10:44:05;18.70;;;9.70;;
71464;SDS011;59274;49.874;9.154;2023-04-16T10:46:40;18.03;;;8.43;;
71464;SDS011;59274;49.874;9.154;2023-04-16T10:51:40;18.33;;;8.73;;
71464;SDS011;59274;49.874;9.154;2023-04-16T10:56:36;16.80;;;8.60;;
71464;SDS011;59274;49.874;9.154;2023-04-16T10:59:09;17.35;;;9.10;;
71464;SDS011;59274;49.874;9.154;2023-04-16T11:01:35;16.65;;;9.38;;
71464;SDS011;59274;49.874;9.154;2023-04-16T11:12:39;19.08;;;9.95;;
71464;SDS011;59274;49.874;9.154;2023-04-16T11:17:38;20.67;;;10.60;;
71464;SDS011;59274;49.874;9.154;2023-04-16T11:20:17;20.67;;;10.20;;
71464;SDS011;59274;49.874;9.154;2023-04-16T11:22:47;20.38;;;10.27;;
71464;SDS011;59274;49.874;9.154;2023-04-16T11:25:23;22.38;;;10.75;;
71464;SDS011;59274;49.874;9.154;2023-04-16T11:27:50;20.10;;;10.65;;
71464;SDS011;59274;49.874;9.154;2023-04-16T11:30:16;20.50;;;10.55;;
71464;SDS011;59274;49.874;9.154;2023-04-16T11:32:42;18.63;;;10.33;;
71464;SDS011;59274;49.874;9.154;2023-04-16T11:35:13;19.98;;;10.02;;
71464;SDS011;59274;49.874;9.154;2023-04-16T11:37:40;20.10;;;10.60;;
71464;SDS011;59274;49.874;9.154;2023-04-16T11:40:06;20.60;;;10.82;;
71464;SDS011;59274;49.874;9.154;2023-04-16T11:42:36;22.67;;;10.88;;
71464;SDS011;59274;49.874;9.154;2023-04-16T11:45:07;23.03;;;11.40;;
71464;SDS011;59274;49.874;9.154;2023-04-16T11:52:52;27.52;;;13.50;;
71464;SDS011;59274;49.874;9.154;2023-04-16T11:55:19;23.20;;;12.63;;
71464;SDS011;59274;49.874;9.154;2023-04-16T11:57:45;24.17;;;12.47;;
71464;SDS011;59274;49.874;9.154;2023-04-16T12:00:11;27.63;;;13.10;;
71464;SDS011;59274;49.874;9.154;2023-04-16T12:05:06;25.90;;;13.10;;
71464;SDS011;59274;49.874;9.154;2023-04-16T12:07:51;25.43;;;13.03;;
71464;SDS011;59274;49.874;9.154;2023-04-16T12:10:17;27.17;;;13.05;;
71464;SDS011;59274;49.874;9.154;2023-04-16T12:12:43;26.83;;;14.10;;
71464;SDS011;59274;49.874;9.154;2023-04-16T12:15:08;28.33;;;14.83;;
71464;SDS011;59274;49.874;9.154;2023-04-16T12:17:34;27.55;;;15.05;;
71464;SDS011;59274;49.874;9.154;2023-04-16T12:20:07;23.37;;;13.20;;
71464;SDS011;59274;49.874;9.154;2023-04-16T12:22:36;24.05;;;13.63;;
71464;SDS011;59274;49.874;9.154;2023-04-16T12:25:12;24.73;;;13.82;;
71464;SDS011;59274;49.874;9.154;2023-04-16T12:27:47;27.17;;;14.35;;
71464;SDS011;59274;49.874;9.154;2023-04-16T12:30:15;29.10;;;14.38;;
71464;SDS011;59274;49.874;9.154;2023-04-16T12:32:42;25.70;;;14.40;;
71464;SDS011;59274;49.874;9.154;2023-04-16T12:35:10;25.95;;;13.85;;
71464;SDS011;59274;49.874;9.154;2023-04-16T12:37:36;25.85;;;14.98;;
71464;SDS011;59274;49.874;9.154;2023-04-16T12:40:03;24.23;;;13.80;;
71464;SDS011;59274;49.874;9.154;2023-04-16T12:42:29;24.42;;;13.38;;
71464;SDS011;59274;49.874;9.154;2023-04-16T12:45:00;24.57;;;13.97;;
71464;SDS011;59274;49.874;9.154;2023-04-16T12:47:27;24.27;;;13.73;;
71464;SDS011;59274;49.874;9.154;2023-04-16T12:49:52;23.20;;;13.00;;
71464;SDS011;59274;49.874;9.154;2023-04-16T12:52:18;27.55;;;15.10;;
71464;SDS011;59274;49.874;9.154;2023-04-16T12:54:43;25.53;;;13.37;;
71464;SDS011;59274;49.874;9.154;2023-04-16T12:57:08;26.77;;;14.93;;
71464;SDS011;59274;49.874;9.154;2023-04-16T12:59:35;28.48;;;14.40;;
71464;SDS011;59274;49.874;9.154;2023-04-16T13:02:01;27.17;;;14.93;;
71464;SDS011;59274;49.874;9.154;2023-04-16T13:04:26;26.93;;;14.97;;
71464;SDS011;59274;49.874;9.154;2023-04-16T13:06:52;26.87;;;14.57;;
71464;SDS011;59274;49.874;9.154;2023-04-16T13:09:17;26.47;;;15.37;;
71464;SDS011;59274;49.874;9.154;2023-04-16T13:11:44;28.60;;;15.45;;
71464;SDS011;59274;49.874;9.154;2023-04-16T13:14:10;26.75;;;14.45;;
71464;SDS011;59274;49.874;9.154;2023-04-16T13:16:35;28.97;;;14.27;;
71464;SDS011;59274;49.874;9.154;2023-04-16T13:19:03;26.30;;;14.85;;
71464;SDS011;59274;49.874;9.154;2023-04-16T13:21:29;26.58;;;14.73;;
71464;SDS011;59274;49.874;9.154;2023-04-16T13:23:55;27.30;;;14.17;;
71464;SDS011;59274;49.874;9.154;2023-04-16T13:26:21;23.88;;;13.73;;
71464;SDS011;59274;49.874;9.154;2023-04-16T13:28:46;26.10;;;13.67;;
71464;SDS011;59274;49.874;9.154;2023-04-16T13:31:12;24.23;;;14.20;;
71464;SDS011;59274;49.874;9.154;2023-04-16T13:33:39;23.75;;;13.55;;
71464;SDS011;59274;49.874;9.154;2023-04-16T13:36:05;26.43;;;13.23;;
71464;SDS011;59274;49.874;9.154;2023-04-16T13:38:30;21.83;;;12.77;;
71464;SDS011;59274;49.874;9.154;2023-04-16T13:40:56;24.63;;;14.43;;
71464;SDS011;59274;49.874;9.154;2023-04-16T13:43:21;22.77;;;12.83;;
71464;SDS011;59274;49.874;9.154;2023-04-16T13:45:47;24.13;;;13.80;;
71464;SDS011;59274;49.874;9.154;2023-04-16T13:48:12;24.80;;;14.20;;
71464;SDS011;59274;49.874;9.154;2023-04-16T13:50:38;23.70;;;14.40;;
71464;SDS011;59274;49.874;9.154;2023-04-16T13:53:03;23.30;;;13.67;;
71464;SDS011;59274;49.874;9.154;2023-04-16T13:55:29;24.00;;;13.70;;
71464;SDS011;59274;49.874;9.154;2023-04-16T13:57:56;23.10;;;12.83;;
71464;SDS011;59274;49.874;9.154;2023-04-16T14:00:21;25.55;;;13.75;;
71464;SDS011;59274;49.874;9.154;2023-04-16T14:02:47;24.33;;;13.57;;
71464;SDS011;59274;49.874;9.154;2023-04-16T14:05:13;25.08;;;14.05;;
71464;SDS011;59274;49.874;9.154;2023-04-16T14:07:39;26.05;;;13.57;;
71464;SDS011;59274;49.874;9.154;2023-04-16T14:10:05;20.50;;;12.43;;
71464;SDS011;59274;49.874;9.154;2023-04-16T14:12:31;23.70;;;12.65;;
71464;SDS011;59274;49.874;9.154;2023-04-16T14:14:56;22.27;;;12.57;;
71464;SDS011;59274;49.874;9.154;2023-04-16T14:17:22;22.95;;;12.27;;
71464;SDS011;59274;49.874;9.154;2023-04-16T14:19:47;20.80;;;11.27;;
71464;SDS011;59274;49.874;9.154;2023-04-16T14:22:13;23.83;;;12.10;;
71464;SDS011;59274;49.874;9.154;2023-04-16T14:24:41;20.40;;;11.45;;
71464;SDS011;59274;49.874;9.154;2023-04-16T14:27:07;21.30;;;11.32;;
71464;SDS011;59274;49.874;9.154;2023-04-16T14:29:32;19.43;;;11.43;;
71464;SDS011;59274;49.874;9.154;2023-04-16T14:31:58;19.30;;;10.83;;
71464;SDS011;59274;49.874;9.154;2023-04-16T14:34:23;19.47;;;11.10;;
71464;SDS011;59274;49.874;9.154;2023-04-16T14:36:49;16.73;;;9.57;;
71464;SDS011;59274;49.874;9.154;2023-04-16T14:39:15;18.17;;;10.37;;
71464;SDS011;59274;49.874;9.154;2023-04-16T14:41:41;18.38;;;9.50;;
71464;SDS011;59274;49.874;9.154;2023-04-16T14:44:07;18.77;;;9.60;;
71464;SDS011;59274;49.874;9.154;2023-04-16T14:46:32;16.47;;;9.27;;
71464;SDS011;59274;49.874;9.154;2023-04-16T14:48:57;18.47;;;8.63;;
71464;SDS011;59274;49.874;9.154;2023-04-16T14:51:23;16.48;;;8.95;;
71464;SDS011;59274;49.874;9.154;2023-04-16T14:53:48;17.00;;;9.33;;